sensor_id;sensor_type;location;lat;lon;timestamp;P1;durP1;ratioP1;P2;durP2;ratioP2
24008;SDS011;12217;50.792;4.372;2022-07-23T00:01:31;21.33;;;15.80;;
24008;SDS011;12217;50.792;4.372;2022-07-23T00:03:57;19.83;;;16.52;;
24008;SDS011;12217;50.792;4.372;2022-07-23T00:06:23;19.63;;;16.92;;
24008;SDS011;12217;50.792;4.372;2022-07-23T00:08:49;21.98;;;17.83;;
24008;SDS011;12217;50.792;4.372;2022-07-23T00:11:15;21.52;;;17.23;;
24008;SDS011;12217;50.792;4.372;2022-07-23T00:13:41;20.60;;;17.88;;
24008;SDS011;12217;50.792;4.372;2022-07-23T00:16:07;21.58;;;17.33;;
24008;SDS011;12217;50.792;4.372;2022-07-23T00:18:33;20.75;;;17.05;;
24008;SDS011;12217;50.792;4.372;2022-07-23T00:20:58;24.67;;;17.77;;
24008;SDS011;12217;50.792;4.372;2022-07-23T00:23:24;21.60;;;17.60;;
24008;SDS011;12217;50.792;4.372;2022-07-23T00:25:50;24.80;;;18.92;;
24008;SDS011;12217;50.792;4.372;2022-07-23T00:28:17;23.08;;;18.27;;
24008;SDS011;12217;50.792;4.372;2022-07-23T00:30:43;23.30;;;18.77;;
24008;SDS011;12217;50.792;4.372;2022-07-23T00:33:09;24.40;;;17.73;;
24008;SDS011;12217;50.792;4.372;2022-07-23T00:35:35;24.10;;;18.17;;
24008;SDS011;12217;50.792;4.372;2022-07-23T00:38:05;19.63;;;16.95;;
24008;SDS011;12217;50.792;4.372;2022-07-23T00:40:31;18.25;;;16.40;;
24008;SDS011;12217;50.792;4.372;2022-07-23T00:42:57;19.23;;;17.23;;
24008;SDS011;12217;50.792;4.372;2022-07-23T00:45:24;20.70;;;17.00;;
24008;SDS011;12217;50.792;4.372;2022-07-23T00:47:50;23.15;;;17.75;;
24008;SDS011;12217;50.792;4.372;2022-07-23T00:50:16;22.23;;;18.10;;
24008;SDS011;12217;50.792;4.372;2022-07-23T00:52:42;19.50;;;17.40;;
24008;SDS011;12217;50.792;4.372;2022-07-23T00:55:09;20.30;;;17.95;;
24008;SDS011;12217;50.792;4.372;2022-07-23T00:57:38;20.83;;;17.23;;
24008;SDS011;12217;50.792;4.372;2022-07-23T01:00:05;20.50;;;18.27;;
24008;SDS011;12217;50.792;4.372;2022-07-23T01:02:32;21.45;;;18.27;;
24008;SDS011;12217;50.792;4.372;2022-07-23T01:04:58;22.90;;;18.73;;
24008;SDS011;12217;50.792;4.372;2022-07-23T01:07:23;24.35;;;18.02;;
24008;SDS011;12217;50.792;4.372;2022-07-23T01:09:50;20.65;;;17.85;;
24008;SDS011;12217;50.792;4.372;2022-07-23T01:12:16;24.52;;;18.73;;
24008;SDS011;12217;50.792;4.372;2022-07-23T01:14:42;20.23;;;18.13;;
24008;SDS011;12217;50.792;4.372;2022-07-23T01:17:08;23.42;;;18.58;;
24008;SDS011;12217;50.792;4.372;2022-07-23T01:19:34;26.05;;;19.20;;
24008;SDS011;12217;50.792;4.372;2022-07-23T01:22:01;21.08;;;18.00;;
24008;SDS011;12217;50.792;4.372;2022-07-23T01:24:29;21.88;;;19.08;;
24008;SDS011;12217;50.792;4.372;2022-07-23T01:26:55;22.55;;;18.60;;
24008;SDS011;12217;50.792;4.372;2022-07-23T01:29:21;21.50;;;18.50;;
24008;SDS011;12217;50.792;4.372;2022-07-23T01:31:47;22.60;;;19.50;;
24008;SDS011;12217;50.792;4.372;2022-07-23T01:34:13;21.15;;;17.98;;
24008;SDS011;12217;50.792;4.372;2022-07-23T01:36:39;21.58;;;18.95;;
24008;SDS011;12217;50.792;4.372;2022-07-23T01:39:05;20.27;;;18.10;;
24008;SDS011;12217;50.792;4.372;2022-07-23T01:41:31;21.92;;;19.15;;
24008;SDS011;12217;50.792;4.372;2022-07-23T01:43:57;21.30;;;19.15;;
24008;SDS011;12217;50.792;4.372;2022-07-23T01:46:23;23.73;;;19.30;;
24008;SDS011;12217;50.792;4.372;2022-07-23T01:48:48;21.90;;;19.60;;
24008;SDS011;12217;50.792;4.372;2022-07-23T01:51:14;22.48;;;19.67;;
24008;SDS011;12217;50.792;4.372;2022-07-23T01:53:40;21.92;;;19.65;;
24008;SDS011;12217;50.792;4.372;2022-07-23T01:56:06;22.90;;;20.40;;
24008;SDS011;12217;50.792;4.372;2022-07-23T01:58:32;25.50;;;21.58;;
24008;SDS011;12217;50.792;4.372;2022-07-23T02:00:58;24.88;;;21.17;;
24008;SDS011;12217;50.792;4.372;2022-07-23T02:03:24;25.40;;;21.83;;
24008;SDS011;12217;50.792;4.372;2022-07-23T02:05:50;25.67;;;21.75;;
24008;SDS011;12217;50.792;4.372;2022-07-23T02:08:16;25.48;;;21.77;;
24008;SDS011;12217;50.792;4.372;2022-07-23T02:10:42;24.77;;;22.17;;
24008;SDS011;12217;50.792;4.372;2022-07-23T02:13:08;24.65;;;21.25;;
24008;SDS011;12217;50.792;4.372;2022-07-23T02:15:34;24.20;;;21.63;;
24008;SDS011;12217;50.792;4.372;2022-07-23T02:17:59;27.45;;;22.48;;
24008;SDS011;12217;50.792;4.372;2022-07-23T02:20:25;27.83;;;21.05;;
24008;SDS011;12217;50.792;4.372;2022-07-23T02:22:51;24.77;;;22.10;;
24008;SDS011;12217;50.792;4.372;2022-07-23T02:25:17;25.20;;;22.50;;
24008;SDS011;12217;50.792;4.372;2022-07-23T02:27:42;24.88;;;22.10;;
24008;SDS011;12217;50.792;4.372;2022-07-23T02:30:08;27.50;;;23.10;;
24008;SDS011;12217;50.792;4.372;2022-07-23T02:32:35;29.13;;;23.50;;
24008;SDS011;12217;50.792;4.372;2022-07-23T02:35:02;26.58;;;23.23;;
24008;SDS011;12217;50.792;4.372;2022-07-23T02:37:28;28.02;;;22.35;;
24008;SDS011;12217;50.792;4.372;2022-07-23T02:39:53;28.83;;;22.60;;
24008;SDS011;12217;50.792;4.372;2022-07-23T02:42:19;26.42;;;22.13;;
24008;SDS011;12217;50.792;4.372;2022-07-23T02:44:45;26.52;;;22.52;;
24008;SDS011;12217;50.792;4.372;2022-07-23T02:47:11;25.77;;;22.70;;
24008;SDS011;12217;50.792;4.372;2022-07-23T02:49:36;26.45;;;22.92;;
24008;SDS011;12217;50.792;4.372;2022-07-23T02:52:02;27.65;;;23.95;;
24008;SDS011;12217;50.792;4.372;2022-07-23T02:54:28;27.40;;;22.70;;
24008;SDS011;12217;50.792;4.372;2022-07-23T02:56:54;31.38;;;24.15;;
24008;SDS011;12217;50.792;4.372;2022-07-23T02:59:19;30.13;;;23.17;;
24008;SDS011;12217;50.792;4.372;2022-07-23T03:01:45;25.48;;;22.83;;
24008;SDS011;12217;50.792;4.372;2022-07-23T03:04:11;29.42;;;21.88;;
24008;SDS011;12217;50.792;4.372;2022-07-23T03:06:37;26.30;;;23.23;;
24008;SDS011;12217;50.792;4.372;2022-07-23T03:09:03;25.42;;;21.38;;
24008;SDS011;12217;50.792;4.372;2022-07-23T03:11:31;24.20;;;21.23;;
24008;SDS011;12217;50.792;4.372;2022-07-23T03:13:56;24.23;;;21.65;;
24008;SDS011;12217;50.792;4.372;2022-07-23T03:16:22;24.33;;;21.65;;
24008;SDS011;12217;50.792;4.372;2022-07-23T03:18:48;24.77;;;20.98;;
24008;SDS011;12217;50.792;4.372;2022-07-23T03:21:13;25.55;;;21.33;;
24008;SDS011;12217;50.792;4.372;2022-07-23T03:23:39;23.30;;;20.80;;
24008;SDS011;12217;50.792;4.372;2022-07-23T03:26:05;22.45;;;19.60;;
24008;SDS011;12217;50.792;4.372;2022-07-23T03:28:30;22.73;;;20.42;;
24008;SDS011;12217;50.792;4.372;2022-07-23T03:30:56;23.27;;;19.65;;
24008;SDS011;12217;50.792;4.372;2022-07-23T03:33:22;20.77;;;18.55;;
24008;SDS011;12217;50.792;4.372;2022-07-23T03:35:48;21.63;;;19.30;;
24008;SDS011;12217;50.792;4.372;2022-07-23T03:38:14;22.58;;;20.17;;
24008;SDS011;12217;50.792;4.372;2022-07-23T03:40:41;23.23;;;19.63;;
24008;SDS011;12217;50.792;4.372;2022-07-23T03:43:06;23.00;;;19.58;;
24008;SDS011;12217;50.792;4.372;2022-07-23T03:45:32;21.77;;;19.45;;
24008;SDS011;12217;50.792;4.372;2022-07-23T03:47:58;20.40;;;18.20;;
24008;SDS011;12217;50.792;4.372;2022-07-23T03:50:24;22.52;;;18.63;;
24008;SDS011;12217;50.792;4.372;2022-07-23T03:52:50;21.58;;;18.88;;
24008;SDS011;12217;50.792;4.372;2022-07-23T03:55:17;23.98;;;19.08;;
24008;SDS011;12217;50.792;4.372;2022-07-23T03:57:42;21.65;;;19.25;;
24008;SDS011;12217;50.792;4.372;2022-07-23T04:00:08;19.95;;;17.95;;
24008;SDS011;12217;50.792;4.372;2022-07-23T04:02:36;21.90;;;19.50;;
24008;SDS011;12217;50.792;4.372;2022-07-23T04:05:02;22.60;;;19.10;;
24008;SDS011;12217;50.792;4.372;2022-07-23T04:07:28;21.75;;;19.30;;
24008;SDS011;12217;50.792;4.372;2022-07-23T04:09:54;21.15;;;18.83;;
24008;SDS011;12217;50.792;4.372;2022-07-23T04:12:19;21.48;;;19.13;;
24008;SDS011;12217;50.792;4.372;2022-07-23T04:14:45;21.23;;;18.92;;
24008;SDS011;12217;50.792;4.372;2022-07-23T04:17:11;23.25;;;19.50;;
24008;SDS011;12217;50.792;4.372;2022-07-23T04:19:37;24.17;;;20.27;;
24008;SDS011;12217;50.792;4.372;2022-07-23T04:22:06;23.45;;;19.92;;
24008;SDS011;12217;50.792;4.372;2022-07-23T04:24:32;22.73;;;19.70;;
24008;SDS011;12217;50.792;4.372;2022-07-23T04:26:58;23.63;;;21.05;;
24008;SDS011;12217;50.792;4.372;2022-07-23T04:29:24;22.98;;;20.13;;
24008;SDS011;12217;50.792;4.372;2022-07-23T04:31:49;22.48;;;19.42;;
24008;SDS011;12217;50.792;4.372;2022-07-23T04:34:15;22.75;;;19.58;;
24008;SDS011;12217;50.792;4.372;2022-07-23T04:36:41;22.98;;;19.92;;
24008;SDS011;12217;50.792;4.372;2022-07-23T04:39:07;22.17;;;19.55;;
24008;SDS011;12217;50.792;4.372;2022-07-23T04:41:32;21.23;;;19.00;;
24008;SDS011;12217;50.792;4.372;2022-07-23T04:43:59;21.27;;;18.48;;
24008;SDS011;12217;50.792;4.372;2022-07-23T04:46:25;24.25;;;19.80;;
24008;SDS011;12217;50.792;4.372;2022-07-23T04:48:50;21.75;;;19.42;;
24008;SDS011;12217;50.792;4.372;2022-07-23T04:51:16;21.88;;;19.23;;
24008;SDS011;12217;50.792;4.372;2022-07-23T04:53:41;21.50;;;19.25;;
24008;SDS011;12217;50.792;4.372;2022-07-23T04:56:07;22.65;;;19.75;;
24008;SDS011;12217;50.792;4.372;2022-07-23T04:58:33;23.17;;;20.67;;
24008;SDS011;12217;50.792;4.372;2022-07-23T05:00:58;21.95;;;19.60;;
24008;SDS011;12217;50.792;4.372;2022-07-23T05:03:24;25.40;;;19.52;;
24008;SDS011;12217;50.792;4.372;2022-07-23T05:05:50;21.45;;;18.15;;
24008;SDS011;12217;50.792;4.372;2022-07-23T05:08:15;20.83;;;18.20;;
24008;SDS011;12217;50.792;4.372;2022-07-23T05:10:41;23.77;;;19.65;;
24008;SDS011;12217;50.792;4.372;2022-07-23T05:13:06;21.83;;;19.30;;
24008;SDS011;12217;50.792;4.372;2022-07-23T05:15:32;21.70;;;19.40;;
24008;SDS011;12217;50.792;4.372;2022-07-23T05:17:58;22.20;;;19.52;;
24008;SDS011;12217;50.792;4.372;2022-07-23T05:20:24;21.80;;;18.50;;
24008;SDS011;12217;50.792;4.372;2022-07-23T05:22:50;19.70;;;17.63;;
24008;SDS011;12217;50.792;4.372;2022-07-23T05:25:16;23.15;;;18.52;;
24008;SDS011;12217;50.792;4.372;2022-07-23T05:27:42;22.52;;;18.80;;
24008;SDS011;12217;50.792;4.372;2022-07-23T05:30:07;19.05;;;17.02;;
24008;SDS011;12217;50.792;4.372;2022-07-23T05:32:34;20.27;;;18.13;;
24008;SDS011;12217;50.792;4.372;2022-07-23T05:35:01;20.35;;;18.15;;
24008;SDS011;12217;50.792;4.372;2022-07-23T05:37:30;18.92;;;16.75;;
24008;SDS011;12217;50.792;4.372;2022-07-23T05:39:55;24.38;;;17.52;;
24008;SDS011;12217;50.792;4.372;2022-07-23T05:42:24;19.20;;;17.20;;
24008;SDS011;12217;50.792;4.372;2022-07-23T05:44:50;19.30;;;17.23;;
24008;SDS011;12217;50.792;4.372;2022-07-23T05:47:16;19.60;;;16.95;;
24008;SDS011;12217;50.792;4.372;2022-07-23T05:49:42;18.25;;;16.42;;
24008;SDS011;12217;50.792;4.372;2022-07-23T05:52:08;21.10;;;17.23;;
24008;SDS011;12217;50.792;4.372;2022-07-23T05:54:34;19.15;;;16.50;;
24008;SDS011;12217;50.792;4.372;2022-07-23T05:57:00;21.75;;;18.02;;
24008;SDS011;12217;50.792;4.372;2022-07-23T05:59:26;21.40;;;18.20;;
24008;SDS011;12217;50.792;4.372;2022-07-23T06:01:52;19.92;;;17.25;;
24008;SDS011;12217;50.792;4.372;2022-07-23T06:04:17;21.10;;;17.33;;
24008;SDS011;12217;50.792;4.372;2022-07-23T06:06:43;21.48;;;18.70;;
24008;SDS011;12217;50.792;4.372;2022-07-23T06:09:08;21.38;;;18.17;;
24008;SDS011;12217;50.792;4.372;2022-07-23T06:11:35;20.85;;;18.55;;
24008;SDS011;12217;50.792;4.372;2022-07-23T06:14:01;20.70;;;18.50;;
24008;SDS011;12217;50.792;4.372;2022-07-23T06:16:27;24.23;;;19.40;;
24008;SDS011;12217;50.792;4.372;2022-07-23T06:18:53;21.65;;;17.85;;
24008;SDS011;12217;50.792;4.372;2022-07-23T06:21:19;21.90;;;18.48;;
24008;SDS011;12217;50.792;4.372;2022-07-23T06:23:44;22.35;;;18.45;;
24008;SDS011;12217;50.792;4.372;2022-07-23T06:26:10;19.33;;;16.85;;
24008;SDS011;12217;50.792;4.372;2022-07-23T06:28:35;19.13;;;16.52;;
24008;SDS011;12217;50.792;4.372;2022-07-23T06:31:01;19.88;;;16.90;;
24008;SDS011;12217;50.792;4.372;2022-07-23T06:33:26;19.38;;;16.48;;
24008;SDS011;12217;50.792;4.372;2022-07-23T06:35:52;20.77;;;16.63;;
24008;SDS011;12217;50.792;4.372;2022-07-23T06:38:18;18.80;;;16.38;;
24008;SDS011;12217;50.792;4.372;2022-07-23T06:40:43;20.02;;;16.88;;
24008;SDS011;12217;50.792;4.372;2022-07-23T06:43:09;17.42;;;15.70;;
24008;SDS011;12217;50.792;4.372;2022-07-23T06:45:35;18.92;;;16.92;;
24008;SDS011;12217;50.792;4.372;2022-07-23T06:48:01;18.75;;;15.48;;
24008;SDS011;12217;50.792;4.372;2022-07-23T06:50:28;19.52;;;15.82;;
24008;SDS011;12217;50.792;4.372;2022-07-23T06:52:54;17.83;;;15.45;;
24008;SDS011;12217;50.792;4.372;2022-07-23T06:55:19;17.25;;;15.23;;
24008;SDS011;12217;50.792;4.372;2022-07-23T06:57:45;20.77;;;15.52;;
24008;SDS011;12217;50.792;4.372;2022-07-23T07:00:11;19.08;;;14.65;;
24008;SDS011;12217;50.792;4.372;2022-07-23T07:02:36;16.95;;;15.15;;
24008;SDS011;12217;50.792;4.372;2022-07-23T07:05:02;19.92;;;17.52;;
24008;SDS011;12217;50.792;4.372;2022-07-23T07:07:28;19.35;;;17.00;;
24008;SDS011;12217;50.792;4.372;2022-07-23T07:09:54;18.67;;;15.77;;
24008;SDS011;12217;50.792;4.372;2022-07-23T07:12:19;20.75;;;17.52;;
24008;SDS011;12217;50.792;4.372;2022-07-23T07:14:45;20.48;;;17.95;;
24008;SDS011;12217;50.792;4.372;2022-07-23T07:17:11;19.98;;;16.70;;
24008;SDS011;12217;50.792;4.372;2022-07-23T07:19:36;19.40;;;16.55;;
24008;SDS011;12217;50.792;4.372;2022-07-23T07:22:02;20.45;;;16.13;;
24008;SDS011;12217;50.792;4.372;2022-07-23T07:24:27;18.40;;;16.50;;
24008;SDS011;12217;50.792;4.372;2022-07-23T07:26:53;17.85;;;16.00;;
24008;SDS011;12217;50.792;4.372;2022-07-23T07:29:18;19.77;;;16.58;;
24008;SDS011;12217;50.792;4.372;2022-07-23T07:31:44;22.05;;;16.40;;
24008;SDS011;12217;50.792;4.372;2022-07-23T07:34:10;17.15;;;15.35;;
24008;SDS011;12217;50.792;4.372;2022-07-23T07:36:35;19.42;;;15.70;;
24008;SDS011;12217;50.792;4.372;2022-07-23T07:39:02;18.35;;;15.27;;
24008;SDS011;12217;50.792;4.372;2022-07-23T07:41:29;17.48;;;14.82;;
24008;SDS011;12217;50.792;4.372;2022-07-23T07:43:55;26.90;;;20.20;;
24008;SDS011;12217;50.792;4.372;2022-07-23T07:46:21;26.73;;;20.60;;
24008;SDS011;12217;50.792;4.372;2022-07-23T07:48:50;18.17;;;15.82;;
24008;SDS011;12217;50.792;4.372;2022-07-23T07:51:15;16.35;;;14.38;;
24008;SDS011;12217;50.792;4.372;2022-07-23T07:53:41;16.05;;;14.38;;
24008;SDS011;12217;50.792;4.372;2022-07-23T07:56:07;16.60;;;14.57;;
24008;SDS011;12217;50.792;4.372;2022-07-23T07:58:32;21.05;;;13.63;;
24008;SDS011;12217;50.792;4.372;2022-07-23T08:00:58;15.98;;;12.73;;
24008;SDS011;12217;50.792;4.372;2022-07-23T08:03:25;16.13;;;13.15;;
24008;SDS011;12217;50.792;4.372;2022-07-23T08:05:51;13.40;;;11.95;;
24008;SDS011;12217;50.792;4.372;2022-07-23T08:08:16;19.77;;;13.07;;
24008;SDS011;12217;50.792;4.372;2022-07-23T08:10:42;15.65;;;12.55;;
24008;SDS011;12217;50.792;4.372;2022-07-23T08:13:10;14.10;;;12.05;;
24008;SDS011;12217;50.792;4.372;2022-07-23T08:15:41;14.05;;;10.95;;
24008;SDS011;12217;50.792;4.372;2022-07-23T08:18:07;12.73;;;10.18;;
24008;SDS011;12217;50.792;4.372;2022-07-23T08:20:33;14.40;;;10.32;;
24008;SDS011;12217;50.792;4.372;2022-07-23T08:23:00;14.75;;;11.18;;
24008;SDS011;12217;50.792;4.372;2022-07-23T08:27:56;13.10;;;9.55;;
24008;SDS011;12217;50.792;4.372;2022-07-23T08:30:22;12.85;;;9.50;;
24008;SDS011;12217;50.792;4.372;2022-07-23T08:35:17;14.93;;;11.07;;
24008;SDS011;12217;50.792;4.372;2022-07-23T08:37:46;12.50;;;10.75;;
24008;SDS011;12217;50.792;4.372;2022-07-23T08:40:11;13.18;;;10.98;;
24008;SDS011;12217;50.792;4.372;2022-07-23T08:42:37;14.23;;;8.90;;
24008;SDS011;12217;50.792;4.372;2022-07-23T08:45:03;11.88;;;9.27;;
24008;SDS011;12217;50.792;4.372;2022-07-23T08:47:29;14.10;;;9.35;;
24008;SDS011;12217;50.792;4.372;2022-07-23T08:49:56;12.77;;;9.82;;
24008;SDS011;12217;50.792;4.372;2022-07-23T08:52:24;12.77;;;9.52;;
24008;SDS011;12217;50.792;4.372;2022-07-23T08:54:51;12.07;;;10.15;;
24008;SDS011;12217;50.792;4.372;2022-07-23T08:57:18;12.23;;;8.77;;
24008;SDS011;12217;50.792;4.372;2022-07-23T08:59:43;12.77;;;9.40;;
24008;SDS011;12217;50.792;4.372;2022-07-23T09:02:09;12.25;;;9.10;;
24008;SDS011;12217;50.792;4.372;2022-07-23T09:04:34;11.10;;;9.23;;
24008;SDS011;12217;50.792;4.372;2022-07-23T09:07:01;15.35;;;10.07;;
24008;SDS011;12217;50.792;4.372;2022-07-23T09:09:27;12.65;;;9.48;;
24008;SDS011;12217;50.792;4.372;2022-07-23T09:12:02;10.27;;;8.23;;
24008;SDS011;12217;50.792;4.372;2022-07-23T09:14:41;12.70;;;7.88;;
24008;SDS011;12217;50.792;4.372;2022-07-23T09:17:14;12.25;;;8.00;;
24008;SDS011;12217;50.792;4.372;2022-07-23T09:19:42;11.75;;;8.38;;
24008;SDS011;12217;50.792;4.372;2022-07-23T09:25:07;10.48;;;8.23;;
24008;SDS011;12217;50.792;4.372;2022-07-23T09:30:18;8.93;;;6.88;;
24008;SDS011;12217;50.792;4.372;2022-07-23T09:38:14;10.57;;;7.65;;
24008;SDS011;12217;50.792;4.372;2022-07-23T09:40:40;8.07;;;6.45;;
24008;SDS011;12217;50.792;4.372;2022-07-23T09:43:05;11.07;;;6.70;;
24008;SDS011;12217;50.792;4.372;2022-07-23T09:45:31;9.30;;;7.22;;
24008;SDS011;12217;50.792;4.372;2022-07-23T09:48:10;10.27;;;8.43;;
24008;SDS011;12217;50.792;4.372;2022-07-23T09:50:37;8.35;;;6.45;;
24008;SDS011;12217;50.792;4.372;2022-07-23T09:53:03;9.75;;;6.10;;
24008;SDS011;12217;50.792;4.372;2022-07-23T09:55:32;9.05;;;6.32;;
24008;SDS011;12217;50.792;4.372;2022-07-23T09:58:03;8.88;;;6.45;;
24008;SDS011;12217;50.792;4.372;2022-07-23T10:00:37;7.20;;;6.32;;
24008;SDS011;12217;50.792;4.372;2022-07-23T10:03:04;8.35;;;4.78;;
24008;SDS011;12217;50.792;4.372;2022-07-23T10:05:31;6.80;;;5.53;;
24008;SDS011;12217;50.792;4.372;2022-07-23T10:07:59;7.05;;;5.60;;
24008;SDS011;12217;50.792;4.372;2022-07-23T10:10:27;7.78;;;6.15;;
24008;SDS011;12217;50.792;4.372;2022-07-23T10:12:55;6.20;;;5.07;;
24008;SDS011;12217;50.792;4.372;2022-07-23T10:15:33;10.05;;;7.50;;
24008;SDS011;12217;50.792;4.372;2022-07-23T10:17:59;7.53;;;5.93;;
24008;SDS011;12217;50.792;4.372;2022-07-23T10:20:24;7.10;;;6.28;;
24008;SDS011;12217;50.792;4.372;2022-07-23T10:22:55;8.07;;;6.43;;
24008;SDS011;12217;50.792;4.372;2022-07-23T10:26:05;7.80;;;5.05;;
24008;SDS011;12217;50.792;4.372;2022-07-23T10:36:51;6.25;;;3.58;;
24008;SDS011;12217;50.792;4.372;2022-07-23T10:42:09;3.45;;;3.15;;
24008;SDS011;12217;50.792;4.372;2022-07-23T10:44:40;4.85;;;3.20;;
24008;SDS011;12217;50.792;4.372;2022-07-23T10:47:08;7.70;;;4.38;;
24008;SDS011;12217;50.792;4.372;2022-07-23T10:49:35;6.28;;;3.78;;
24008;SDS011;12217;50.792;4.372;2022-07-23T10:54:42;5.95;;;3.15;;
24008;SDS011;12217;50.792;4.372;2022-07-23T10:57:12;6.18;;;3.30;;
24008;SDS011;12217;50.792;4.372;2022-07-23T11:02:28;3.38;;;3.08;;
24008;SDS011;12217;50.792;4.372;2022-07-23T11:05:01;4.25;;;3.35;;
24008;SDS011;12217;50.792;4.372;2022-07-23T11:07:30;5.50;;;4.22;;
24008;SDS011;12217;50.792;4.372;2022-07-23T11:09:57;4.45;;;3.75;;
24008;SDS011;12217;50.792;4.372;2022-07-23T11:17:29;5.07;;;3.45;;
24008;SDS011;12217;50.792;4.372;2022-07-23T11:25:11;4.65;;;3.25;;
24008;SDS011;12217;50.792;4.372;2022-07-23T11:27:46;4.30;;;2.95;;
24008;SDS011;12217;50.792;4.372;2022-07-23T11:32:53;3.67;;;3.38;;
24008;SDS011;12217;50.792;4.372;2022-07-23T11:35:21;3.65;;;3.10;;
24008;SDS011;12217;50.792;4.372;2022-07-23T11:37:48;3.90;;;3.53;;
24008;SDS011;12217;50.792;4.372;2022-07-23T11:40:15;3.40;;;3.05;;
24008;SDS011;12217;50.792;4.372;2022-07-23T11:45:21;4.38;;;3.58;;
24008;SDS011;12217;50.792;4.372;2022-07-23T11:47:48;4.45;;;3.45;;
24008;SDS011;12217;50.792;4.372;2022-07-23T11:50:13;4.13;;;3.70;;
24008;SDS011;12217;50.792;4.372;2022-07-23T11:52:39;4.63;;;3.55;;
24008;SDS011;12217;50.792;4.372;2022-07-23T11:55:06;5.38;;;4.82;;
24008;SDS011;12217;50.792;4.372;2022-07-23T11:57:35;6.32;;;5.32;;
24008;SDS011;12217;50.792;4.372;2022-07-23T12:02:31;5.53;;;4.30;;
24008;SDS011;12217;50.792;4.372;2022-07-23T12:04:56;9.00;;;5.10;;
24008;SDS011;12217;50.792;4.372;2022-07-23T12:07:32;5.82;;;4.50;;
24008;SDS011;12217;50.792;4.372;2022-07-23T12:10:04;5.60;;;3.72;;
24008;SDS011;12217;50.792;4.372;2022-07-23T12:12:37;9.48;;;5.07;;
24008;SDS011;12217;50.792;4.372;2022-07-23T12:15:04;7.45;;;4.25;;
24008;SDS011;12217;50.792;4.372;2022-07-23T12:17:32;5.70;;;4.13;;
24008;SDS011;12217;50.792;4.372;2022-07-23T12:20:00;5.88;;;4.35;;
24008;SDS011;12217;50.792;4.372;2022-07-23T12:22:33;4.20;;;3.90;;
24008;SDS011;12217;50.792;4.372;2022-07-23T12:25:07;6.30;;;3.92;;
24008;SDS011;12217;50.792;4.372;2022-07-23T12:27:35;5.72;;;4.20;;
24008;SDS011;12217;50.792;4.372;2022-07-23T12:32:51;8.02;;;5.32;;
24008;SDS011;12217;50.792;4.372;2022-07-23T12:35:21;6.18;;;5.25;;
24008;SDS011;12217;50.792;4.372;2022-07-23T12:37:49;6.22;;;4.50;;
24008;SDS011;12217;50.792;4.372;2022-07-23T12:42:58;10.68;;;7.68;;
24008;SDS011;12217;50.792;4.372;2022-07-23T12:45:45;9.25;;;7.45;;
24008;SDS011;12217;50.792;4.372;2022-07-23T12:50:43;8.27;;;5.32;;
24008;SDS011;12217;50.792;4.372;2022-07-23T12:53:18;8.48;;;5.53;;
24008;SDS011;12217;50.792;4.372;2022-07-23T12:55:50;6.25;;;5.00;;
24008;SDS011;12217;50.792;4.372;2022-07-23T12:58:23;5.70;;;4.18;;
24008;SDS011;12217;50.792;4.372;2022-07-23T13:00:52;5.22;;;4.72;;
24008;SDS011;12217;50.792;4.372;2022-07-23T13:03:25;6.38;;;4.50;;
24008;SDS011;12217;50.792;4.372;2022-07-23T13:05:53;5.75;;;3.97;;
24008;SDS011;12217;50.792;4.372;2022-07-23T13:08:20;5.82;;;4.20;;
24008;SDS011;12217;50.792;4.372;2022-07-23T13:10:46;5.28;;;4.55;;
24008;SDS011;12217;50.792;4.372;2022-07-23T13:13:16;5.13;;;4.10;;
24008;SDS011;12217;50.792;4.372;2022-07-23T13:15:45;6.05;;;5.15;;
24008;SDS011;12217;50.792;4.372;2022-07-23T13:18:10;5.00;;;4.38;;
24008;SDS011;12217;50.792;4.372;2022-07-23T13:20:36;4.55;;;4.15;;
24008;SDS011;12217;50.792;4.372;2022-07-23T13:23:03;4.15;;;3.75;;
24008;SDS011;12217;50.792;4.372;2022-07-23T13:25:30;6.05;;;5.45;;
24008;SDS011;12217;50.792;4.372;2022-07-23T13:27:56;6.13;;;4.32;;
24008;SDS011;12217;50.792;4.372;2022-07-23T13:30:21;4.55;;;3.83;;
24008;SDS011;12217;50.792;4.372;2022-07-23T13:32:47;5.75;;;3.83;;
24008;SDS011;12217;50.792;4.372;2022-07-23T13:35:13;5.85;;;4.78;;
24008;SDS011;12217;50.792;4.372;2022-07-23T13:37:39;7.15;;;4.30;;
24008;SDS011;12217;50.792;4.372;2022-07-23T13:40:05;4.65;;;4.25;;
24008;SDS011;12217;50.792;4.372;2022-07-23T13:42:31;6.25;;;4.22;;
24008;SDS011;12217;50.792;4.372;2022-07-23T13:44:57;4.68;;;4.28;;
24008;SDS011;12217;50.792;4.372;2022-07-23T13:47:22;4.95;;;4.28;;
24008;SDS011;12217;50.792;4.372;2022-07-23T13:49:48;5.75;;;4.35;;
24008;SDS011;12217;50.792;4.372;2022-07-23T13:52:13;6.43;;;5.32;;
24008;SDS011;12217;50.792;4.372;2022-07-23T13:54:39;10.45;;;4.60;;
24008;SDS011;12217;50.792;4.372;2022-07-23T13:57:05;5.13;;;4.30;;
24008;SDS011;12217;50.792;4.372;2022-07-23T13:59:30;5.57;;;4.53;;
24008;SDS011;12217;50.792;4.372;2022-07-23T14:01:56;4.88;;;4.47;;
24008;SDS011;12217;50.792;4.372;2022-07-23T14:04:21;5.03;;;4.53;;
24008;SDS011;12217;50.792;4.372;2022-07-23T14:06:48;7.10;;;4.18;;
24008;SDS011;12217;50.792;4.372;2022-07-23T14:09:13;5.53;;;4.95;;
24008;SDS011;12217;50.792;4.372;2022-07-23T14:11:39;5.18;;;4.20;;
24008;SDS011;12217;50.792;4.372;2022-07-23T14:14:05;8.57;;;4.57;;
24008;SDS011;12217;50.792;4.372;2022-07-23T14:16:30;5.30;;;4.90;;
24008;SDS011;12217;50.792;4.372;2022-07-23T14:18:56;5.28;;;4.78;;
24008;SDS011;12217;50.792;4.372;2022-07-23T14:21:22;6.18;;;4.75;;
24008;SDS011;12217;50.792;4.372;2022-07-23T14:23:47;6.97;;;4.38;;
24008;SDS011;12217;50.792;4.372;2022-07-23T14:26:13;5.05;;;4.55;;
24008;SDS011;12217;50.792;4.372;2022-07-23T14:28:38;5.78;;;4.53;;
24008;SDS011;12217;50.792;4.372;2022-07-23T14:31:04;6.63;;;4.43;;
24008;SDS011;12217;50.792;4.372;2022-07-23T14:33:30;4.90;;;4.40;;
24008;SDS011;12217;50.792;4.372;2022-07-23T14:35:55;5.32;;;4.38;;
24008;SDS011;12217;50.792;4.372;2022-07-23T14:38:21;6.90;;;5.70;;
24008;SDS011;12217;50.792;4.372;2022-07-23T14:40:46;6.25;;;4.80;;
24008;SDS011;12217;50.792;4.372;2022-07-23T14:43:12;6.63;;;4.80;;
24008;SDS011;12217;50.792;4.372;2022-07-23T14:45:38;5.63;;;4.97;;
24008;SDS011;12217;50.792;4.372;2022-07-23T14:48:04;9.20;;;5.32;;
24008;SDS011;12217;50.792;4.372;2022-07-23T14:50:30;6.75;;;5.35;;
24008;SDS011;12217;50.792;4.372;2022-07-23T14:52:55;5.10;;;4.65;;
24008;SDS011;12217;50.792;4.372;2022-07-23T14:55:21;6.40;;;5.78;;
24008;SDS011;12217;50.792;4.372;2022-07-23T14:57:46;6.47;;;5.00;;
24008;SDS011;12217;50.792;4.372;2022-07-23T15:00:12;6.32;;;5.20;;
24008;SDS011;12217;50.792;4.372;2022-07-23T15:02:38;5.82;;;5.20;;
24008;SDS011;12217;50.792;4.372;2022-07-23T15:05:04;8.23;;;4.95;;
24008;SDS011;12217;50.792;4.372;2022-07-23T15:07:30;6.07;;;4.82;;
24008;SDS011;12217;50.792;4.372;2022-07-23T15:09:56;5.40;;;4.75;;
24008;SDS011;12217;50.792;4.372;2022-07-23T15:12:22;8.57;;;5.65;;
24008;SDS011;12217;50.792;4.372;2022-07-23T15:14:48;5.97;;;4.95;;
24008;SDS011;12217;50.792;4.372;2022-07-23T15:17:13;5.50;;;4.43;;
24008;SDS011;12217;50.792;4.372;2022-07-23T15:19:39;6.50;;;4.93;;
24008;SDS011;12217;50.792;4.372;2022-07-23T15:22:04;5.90;;;4.43;;
24008;SDS011;12217;50.792;4.372;2022-07-23T15:24:30;5.13;;;4.72;;
24008;SDS011;12217;50.792;4.372;2022-07-23T15:26:56;5.90;;;5.20;;